createdAt,value
2023-05-23T00:00:04.817Z,83.22
2023-05-23T00:02:49.934Z,83.22
2023-05-23T00:05:35.058Z,83.03
2023-05-23T00:08:20.422Z,83.08
2023-05-23T00:11:05.893Z,83.39
2023-05-23T00:13:51.384Z,83.62
2023-05-23T00:16:41.341Z,83.82
2023-05-23T00:19:26.846Z,83.58
2023-05-23T00:22:12.481Z,83.89
2023-05-23T00:24:57.919Z,83.86
2023-05-23T00:27:43.342Z,83.69
2023-05-23T00:30:33.326Z,84.19
2023-05-23T00:33:22.267Z,84.27
2023-05-23T00:36:07.579Z,84.27
2023-05-23T00:38:53.322Z,84.24
2023-05-23T00:41:38.577Z,84.31
2023-05-23T00:44:24.044Z,84.07
2023-05-23T00:47:09.411Z,84.20
2023-05-23T00:49:54.982Z,84.42
2023-05-23T00:52:40.919Z,84.33
2023-05-23T00:55:26.309Z,84.28
2023-05-23T00:58:13.214Z,84.56
2023-05-23T01:00:59.966Z,84.27
2023-05-23T01:03:45.773Z,84.59
2023-05-23T01:06:33.389Z,84.76
2023-05-23T01:09:19.186Z,84.65
2023-05-23T01:12:40.002Z,84.72
2023-05-23T01:16:03.598Z,84.71
2023-05-23T01:19:13.664Z,84.73
2023-05-23T01:22:06.511Z,84.50
2023-05-23T01:24:57.781Z,84.68
2023-05-23T01:27:48.940Z,84.65
2023-05-23T01:30:39.748Z,84.52
2023-05-23T01:33:25.735Z,84.63
2023-05-23T01:36:13.758Z,84.92
2023-05-23T01:38:59.265Z,84.88
2023-05-23T01:41:44.918Z,84.91
2023-05-23T01:44:30.759Z,84.93
2023-05-23T01:47:16.708Z,85.23
2023-05-23T01:50:03.049Z,85.08
2023-05-23T01:52:48.980Z,85.67
2023-05-23T01:55:34.921Z,85.10
2023-05-23T01:58:20.673Z,85.12
2023-05-23T02:01:06.100Z,85.00
2023-05-23T02:03:51.784Z,85.58
2023-05-23T02:06:37.088Z,85.32
2023-05-23T02:09:22.464Z,85.24
2023-05-23T02:12:07.903Z,85.43
2023-05-23T02:14:55.269Z,85.61
2023-05-23T02:17:41.591Z,85.64
2023-05-23T02:20:27.009Z,85.69
2023-05-23T02:23:12.511Z,85.89
2023-05-23T02:25:57.795Z,85.74
2023-05-23T02:28:43.020Z,85.70
2023-05-23T02:31:29.116Z,85.83
2023-05-23T02:34:14.322Z,85.61
2023-05-23T02:36:59.606Z,85.76
2023-05-23T02:39:44.875Z,85.76
2023-05-23T02:42:30.275Z,86.37
2023-05-23T02:45:15.581Z,85.94
2023-05-23T02:48:01.031Z,86.27
2023-05-23T02:50:46.140Z,85.79
2023-05-23T02:53:31.929Z,85.93
2023-05-23T02:56:17.080Z,85.87
2023-05-23T02:59:02.467Z,86.31
2023-05-23T03:01:47.701Z,86.21
2023-05-23T03:04:33.674Z,86.35
2023-05-23T03:07:27.469Z,86.63
2023-05-23T03:10:13.354Z,86.56
2023-05-23T03:12:58.548Z,86.50
2023-05-23T03:15:44.005Z,86.38
2023-05-23T03:18:29.416Z,86.38
2023-05-23T03:21:14.750Z,86.71
2023-05-23T03:24:00.062Z,87.18
2023-05-23T03:26:45.337Z,86.89
2023-05-23T03:29:30.857Z,86.94
2023-05-23T03:32:16.128Z,87.20
2023-05-23T03:35:01.556Z,87.51
2023-05-23T03:37:47.404Z,87.41
2023-05-23T03:40:32.723Z,88.04
2023-05-23T03:43:18.041Z,88.13
2023-05-23T03:46:03.609Z,88.36
2023-05-23T03:48:49.357Z,88.25
2023-05-23T03:51:34.852Z,88.60
2023-05-23T03:54:20.127Z,89.41
2023-05-23T03:57:05.692Z,89.82
2023-05-23T03:59:51.334Z,89.23
2023-05-23T04:02:36.711Z,90.09
2023-05-23T04:05:21.819Z,90.02
2023-05-23T04:08:08.229Z,90.16
2023-05-23T04:10:53.649Z,90.57
2023-05-23T04:13:38.824Z,91.62
2023-05-23T04:16:24.612Z,91.14
2023-05-23T04:19:10.003Z,91.67
2023-05-23T04:21:55.343Z,91.84
2023-05-23T04:24:40.903Z,91.37
2023-05-23T04:27:26.136Z,91.26
2023-05-23T04:30:11.746Z,91.57
2023-05-23T04:32:58.346Z,91.31
2023-05-23T04:35:43.941Z,90.86
2023-05-23T04:38:29.653Z,91.08
2023-05-23T04:41:16.409Z,91.33
2023-05-23T04:44:02.109Z,91.15
2023-05-23T04:46:47.452Z,91.18
2023-05-23T04:49:34.376Z,91.62
2023-05-23T04:52:20.253Z,91.42
2023-05-23T04:55:06.607Z,92.94
2023-05-23T04:57:51.824Z,93.36
2023-05-23T05:00:37.596Z,93.47
2023-05-23T05:03:25.088Z,92.67
2023-05-23T05:06:10.346Z,92.28
2023-05-23T05:08:55.439Z,92.90
2023-05-23T05:11:40.963Z,93.00
2023-05-23T05:14:27.657Z,92.71
2023-05-23T05:17:13.004Z,93.35
2023-05-23T05:19:58.530Z,93.55
2023-05-23T05:22:43.900Z,92.68
2023-05-23T05:25:32.228Z,92.83
2023-05-23T05:28:17.550Z,92.51
2023-05-23T05:31:05.313Z,92.68
2023-05-23T05:33:50.676Z,93.34
2023-05-23T05:36:35.798Z,92.47
2023-05-23T05:39:21.129Z,92.57
2023-05-23T05:42:06.698Z,92.27
2023-05-23T05:44:51.958Z,92.12
2023-05-23T05:47:38.888Z,92.40
2023-05-23T05:50:24.656Z,92.09
2023-05-23T05:53:09.622Z,92.01
2023-05-23T05:55:55.096Z,91.83
2023-05-23T05:58:40.450Z,92.13
2023-05-23T06:01:26.886Z,91.87
2023-05-23T06:04:12.533Z,91.41
2023-05-23T06:06:57.578Z,91.98
2023-05-23T06:09:43.513Z,91.14
2023-05-23T06:12:28.884Z,91.64
2023-05-23T06:15:14.830Z,91.19
2023-05-23T06:18:00.143Z,90.29
2023-05-23T06:20:45.226Z,90.30
2023-05-23T06:23:30.523Z,89.14
2023-05-23T06:26:15.931Z,88.56
2023-05-23T06:29:01.228Z,88.69
2023-05-23T06:31:46.673Z,88.74
2023-05-23T06:34:31.769Z,87.52
2023-05-23T06:37:18.022Z,86.35
2023-05-23T06:40:03.405Z,86.40
2023-05-23T06:42:48.513Z,86.40
2023-05-23T06:45:35.935Z,86.35
2023-05-23T06:48:21.013Z,86.17
2023-05-23T06:51:06.515Z,86.30
2023-05-23T06:53:51.772Z,84.38
2023-05-23T06:56:37.004Z,83.85
2023-05-23T06:59:22.467Z,83.05
2023-05-23T07:02:07.688Z,83.60
2023-05-23T07:04:52.971Z,82.99
2023-05-23T07:07:38.241Z,82.90
2023-05-23T07:10:23.767Z,83.14
2023-05-23T07:13:09.425Z,82.07
2023-05-23T07:15:55.992Z,81.42
2023-05-23T07:18:41.272Z,81.49
2023-05-23T07:21:26.656Z,79.72
2023-05-23T07:24:12.095Z,80.52
2023-05-23T07:26:57.481Z,81.38
2023-05-23T07:29:42.818Z,80.12
2023-05-23T07:32:27.991Z,80.23
2023-05-23T07:35:14.058Z,79.69
2023-05-23T07:37:59.622Z,77.93
2023-05-23T07:40:48.269Z,78.07
2023-05-23T07:43:42.106Z,75.35
2023-05-23T07:46:27.595Z,74.32
2023-05-23T07:49:12.914Z,71.46
2023-05-23T07:51:58.555Z,71.17
2023-05-23T07:54:43.739Z,70.97
2023-05-23T07:57:29.315Z,70.57
2023-05-23T08:00:15.017Z,69.79
2023-05-23T08:03:00.181Z,68.59
2023-05-23T08:05:45.300Z,69.37
2023-05-23T08:08:30.819Z,69.11
2023-05-23T08:11:16.697Z,68.24
2023-05-23T08:14:02.141Z,68.42
2023-05-23T08:16:47.498Z,66.70
2023-05-23T08:19:32.810Z,64.82
2023-05-23T08:22:17.990Z,65.63
2023-05-23T08:25:03.406Z,64.20
2023-05-23T08:27:48.709Z,64.97
2023-05-23T08:30:33.976Z,64.24
2023-05-23T08:33:19.151Z,63.85
2023-05-23T08:36:04.589Z,65.31
2023-05-23T08:38:51.268Z,64.06
2023-05-23T08:41:36.841Z,64.09
2023-05-23T08:44:22.129Z,63.53
2023-05-23T08:47:09.074Z,63.28
2023-05-23T08:49:56.625Z,62.07
2023-05-23T08:52:58.883Z,62.99
2023-05-23T08:55:44.027Z,60.42
2023-05-23T08:58:34.407Z,60.16
2023-05-23T09:01:20.702Z,61.35
2023-05-23T09:04:07.161Z,61.22
2023-05-23T09:06:54.238Z,58.94
2023-05-23T09:09:39.680Z,59.10
2023-05-23T09:12:25.424Z,60.56
2023-05-23T09:15:11.449Z,60.54
2023-05-23T09:18:02.044Z,56.50
2023-05-23T09:20:48.455Z,58.95
2023-05-23T09:23:35.011Z,59.04
2023-05-23T09:26:20.072Z,61.18
2023-05-23T09:29:06.418Z,59.67
2023-05-23T09:31:51.750Z,56.92
2023-05-23T09:34:41.066Z,56.82
2023-05-23T09:37:34.511Z,56.23
2023-05-23T09:40:20.166Z,56.46
2023-05-23T09:43:07.643Z,57.12
2023-05-23T09:45:54.252Z,58.55
2023-05-23T09:48:39.609Z,58.18
2023-05-23T09:51:24.849Z,59.77
2023-05-23T09:54:10.151Z,60.31
2023-05-23T09:57:01.424Z,59.29
2023-05-23T09:59:54.411Z,59.98
2023-05-23T10:03:15.107Z,59.82
2023-05-23T10:06:02.359Z,60.93
2023-05-23T10:08:57.424Z,61.25
2023-05-23T10:12:21.239Z,61.54
2023-05-23T10:15:09.758Z,61.31
2023-05-23T10:18:07.996Z,61.58
2023-05-23T10:20:57.731Z,62.80
2023-05-23T10:23:44.679Z,61.74
2023-05-23T10:26:30.657Z,61.20
2023-05-23T10:29:15.984Z,61.84
2023-05-23T10:32:05.709Z,62.36
2023-05-23T10:35:08.344Z,61.26
2023-05-23T10:38:01.150Z,62.28
2023-05-23T10:41:05.825Z,63.10
2023-05-23T10:44:05.517Z,65.30
2023-05-23T10:47:01.357Z,70.77
2023-05-23T10:49:51.602Z,73.32
2023-05-23T10:52:41.316Z,74.27
2023-05-23T10:55:28.282Z,77.56
2023-05-23T10:58:20.560Z,77.94
2023-05-23T11:01:08.520Z,78.01
2023-05-23T11:03:55.538Z,77.23
2023-05-23T11:06:44.361Z,78.31
2023-05-23T11:09:29.551Z,80.39
2023-05-23T11:12:15.047Z,84.47
2023-05-23T11:15:00.389Z,86.84
2023-05-23T11:17:56.942Z,88.81
2023-05-23T11:20:45.224Z,87.57
2023-05-23T11:23:42.525Z,87.43
2023-05-23T11:26:32.098Z,90.84
2023-05-23T11:29:17.660Z,88.58
2023-05-23T11:32:16.063Z,87.39
2023-05-23T11:35:08.403Z,82.96
2023-05-23T11:37:56.864Z,82.33
2023-05-23T11:40:44.721Z,80.02
2023-05-23T11:43:30.410Z,76.82
2023-05-23T11:46:15.961Z,77.59
2023-05-23T11:49:01.493Z,76.00
2023-05-23T11:51:46.509Z,75.63
2023-05-23T11:54:32.082Z,73.76
2023-05-23T11:57:17.208Z,73.14
2023-05-23T12:00:04.027Z,72.31
2023-05-23T12:02:49.312Z,71.33
2023-05-23T12:05:34.916Z,68.89
2023-05-23T12:08:20.016Z,69.39
2023-05-23T12:11:06.322Z,69.73
2023-05-23T12:13:53.115Z,70.06
2023-05-23T12:16:38.498Z,69.01
2023-05-23T12:19:24.874Z,69.05
2023-05-23T12:22:10.296Z,68.31
2023-05-23T12:24:58.582Z,67.22
2023-05-23T12:27:44.343Z,67.63
2023-05-23T12:30:29.375Z,68.18
2023-05-23T12:33:14.706Z,65.84
2023-05-23T12:36:00.161Z,65.69
2023-05-23T12:38:45.854Z,63.16
2023-05-23T12:41:35.716Z,62.37
2023-05-23T12:44:21.112Z,61.26
2023-05-23T12:47:06.666Z,59.62
2023-05-23T12:49:51.958Z,62.25
2023-05-23T12:52:37.910Z,63.67
2023-05-23T12:55:23.230Z,61.91
2023-05-23T12:58:08.455Z,59.94
2023-05-23T13:00:53.950Z,59.69
2023-05-23T13:03:39.145Z,60.54
2023-05-23T13:06:24.473Z,59.02
2023-05-23T13:09:10.298Z,60.28
2023-05-23T13:11:55.251Z,60.21
2023-05-23T13:14:41.607Z,60.13
2023-05-23T13:17:26.537Z,58.83
2023-05-23T13:20:12.224Z,60.86
2023-05-23T13:22:58.272Z,60.38
2023-05-23T13:25:43.985Z,61.28
2023-05-23T13:28:29.353Z,60.69
2023-05-23T13:31:14.652Z,63.01
2023-05-23T13:33:59.976Z,62.04
2023-05-23T13:36:45.433Z,62.95
2023-05-23T13:39:30.714Z,61.85
2023-05-23T13:42:16.142Z,62.43
2023-05-23T13:45:01.402Z,61.24
2023-05-23T13:47:47.407Z,60.03
2023-05-23T13:50:32.664Z,60.01
2023-05-23T13:53:17.826Z,60.10
2023-05-23T13:56:03.452Z,61.39
2023-05-23T13:58:48.562Z,61.73
2023-05-23T14:01:33.946Z,62.30
2023-05-23T14:04:19.595Z,63.43
2023-05-23T14:07:04.720Z,64.21
2023-05-23T14:09:50.497Z,63.90
2023-05-23T14:12:35.819Z,65.09
2023-05-23T14:15:21.410Z,65.15
2023-05-23T14:18:06.905Z,65.43
2023-05-23T14:20:52.310Z,67.83
2023-05-23T14:23:37.482Z,69.02
2023-05-23T14:26:23.485Z,70.94
2023-05-23T14:29:08.840Z,73.16
2023-05-23T14:31:54.177Z,73.55
2023-05-23T14:34:39.558Z,73.80
2023-05-23T14:37:24.842Z,75.26
2023-05-23T14:40:10.532Z,75.64
2023-05-23T14:42:55.766Z,76.85
2023-05-23T14:45:41.377Z,76.84
2023-05-23T14:48:27.065Z,76.46
2023-05-23T14:51:20.694Z,77.14
2023-05-23T14:54:12.556Z,75.05
2023-05-23T14:56:57.911Z,73.50
2023-05-23T14:59:43.601Z,72.09
2023-05-23T15:02:28.735Z,73.02
2023-05-23T15:05:15.408Z,73.17
2023-05-23T15:08:01.395Z,73.61
2023-05-23T15:10:47.141Z,73.63
2023-05-23T15:13:32.425Z,74.51
2023-05-23T15:16:18.135Z,76.70
2023-05-23T15:19:05.063Z,78.35
2023-05-23T15:21:51.724Z,77.58
2023-05-23T15:24:43.555Z,77.89
2023-05-23T15:27:29.153Z,78.80
2023-05-23T15:30:14.382Z,79.57
2023-05-23T15:33:01.528Z,79.22
2023-05-23T15:35:47.627Z,78.65
2023-05-23T15:38:32.961Z,78.83
2023-05-23T15:41:18.449Z,79.04
2023-05-23T15:44:03.416Z,81.00
2023-05-23T15:46:51.078Z,82.93
2023-05-23T15:49:36.602Z,84.15
2023-05-23T15:52:21.557Z,84.93
2023-05-23T15:55:07.488Z,85.31
2023-05-23T15:57:53.040Z,85.23
2023-05-23T16:00:38.248Z,85.55
2023-05-23T16:03:23.941Z,86.01
2023-05-23T16:06:09.129Z,86.00
2023-05-23T16:08:54.811Z,86.47
2023-05-23T16:11:40.048Z,87.80
2023-05-23T16:14:25.736Z,87.79
2023-05-23T16:17:11.122Z,87.77
2023-05-23T16:19:56.207Z,88.15
2023-05-23T16:22:41.724Z,89.75
2023-05-23T16:25:27.088Z,91.11
2023-05-23T16:28:12.365Z,91.67
2023-05-23T16:30:57.526Z,91.50
2023-05-23T16:33:43.424Z,91.63
2023-05-23T16:36:28.878Z,92.02
2023-05-23T16:39:14.487Z,93.37
2023-05-23T16:42:00.670Z,93.52
2023-05-23T16:44:46.433Z,93.19
2023-05-23T16:47:31.943Z,92.83
2023-05-23T16:50:17.491Z,92.44
2023-05-23T16:53:02.837Z,92.49
2023-05-23T16:55:47.899Z,93.13
2023-05-23T16:58:36.060Z,94.56
2023-05-23T17:01:21.857Z,96.17
2023-05-23T17:04:07.195Z,98.31
2023-05-23T17:06:52.316Z,98.62
2023-05-23T17:09:37.623Z,98.27
2023-05-23T17:12:23.287Z,97.45
2023-05-23T17:15:09.126Z,96.77
2023-05-23T17:17:55.476Z,96.65
2023-05-23T17:20:40.914Z,98.22
2023-05-23T17:23:26.603Z,99.20
2023-05-23T17:26:12.298Z,100.00
2023-05-23T17:28:57.270Z,99.99
2023-05-23T17:31:43.490Z,99.66
2023-05-23T17:34:28.808Z,100.00
2023-05-23T17:37:15.261Z,100.00
2023-05-23T17:40:01.904Z,99.78
2023-05-23T17:42:47.253Z,99.66
2023-05-23T17:45:32.504Z,100.00
2023-05-23T17:48:18.098Z,100.00
2023-05-23T17:51:03.373Z,100.00
2023-05-23T17:53:51.715Z,99.89
2023-05-23T17:56:37.491Z,98.97
2023-05-23T17:59:23.187Z,98.46
2023-05-23T18:02:10.009Z,97.93
2023-05-23T18:04:55.303Z,98.03
2023-05-23T18:07:40.917Z,98.63
2023-05-23T18:10:26.767Z,99.13
2023-05-23T18:13:11.764Z,98.63
2023-05-23T18:15:57.229Z,97.98
2023-05-23T18:18:42.402Z,97.28
2023-05-23T18:21:28.855Z,96.57
2023-05-23T18:24:14.212Z,96.28
2023-05-23T18:26:59.265Z,96.00
2023-05-23T18:29:44.738Z,95.85
2023-05-23T18:32:30.516Z,95.63
2023-05-23T18:35:16.100Z,95.54
2023-05-23T18:38:01.602Z,95.49
2023-05-23T18:40:46.928Z,95.25
2023-05-23T18:43:32.218Z,95.15
2023-05-23T18:46:17.392Z,95.28
2023-05-23T18:49:03.033Z,95.41
2023-05-23T18:51:48.396Z,95.44
2023-05-23T18:54:33.513Z,95.21
2023-05-23T18:57:20.493Z,94.89
2023-05-23T19:00:06.612Z,94.95
2023-05-23T19:02:52.315Z,95.51
2023-05-23T19:05:37.956Z,96.46
2023-05-23T19:08:23.268Z,96.54
2023-05-23T19:11:10.755Z,96.44
2023-05-23T19:13:56.150Z,96.25
2023-05-23T19:16:41.556Z,96.00
2023-05-23T19:19:29.301Z,96.15
2023-05-23T19:22:16.185Z,96.28
2023-05-23T19:25:01.681Z,96.26
2023-05-23T19:27:46.725Z,96.44
2023-05-23T19:30:32.137Z,96.30
2023-05-23T19:33:18.512Z,96.60
2023-05-23T19:36:05.337Z,97.41
2023-05-23T19:38:51.921Z,98.05
2023-05-23T19:41:37.228Z,97.71
2023-05-23T19:44:22.582Z,97.53
2023-05-23T19:47:07.947Z,97.19
2023-05-23T19:49:53.285Z,97.13
2023-05-23T19:52:39.723Z,97.29
2023-05-23T19:55:25.064Z,97.24
2023-05-23T19:58:10.450Z,97.13
2023-05-23T20:00:56.048Z,96.87
2023-05-23T20:03:41.100Z,96.64
2023-05-23T20:06:26.885Z,96.46
2023-05-23T20:09:12.319Z,96.45
2023-05-23T20:11:57.560Z,96.78
2023-05-23T20:14:42.980Z,96.98
2023-05-23T20:17:29.281Z,96.90
2023-05-23T20:20:14.770Z,97.16
2023-05-23T20:23:00.069Z,97.16
2023-05-23T20:25:45.549Z,97.09
2023-05-23T20:28:31.437Z,97.34
2023-05-23T20:31:17.389Z,97.80
2023-05-23T20:34:02.693Z,98.29
2023-05-23T20:36:48.081Z,98.16
2023-05-23T20:39:33.173Z,97.88
2023-05-23T20:42:19.174Z,97.94
2023-05-23T20:45:07.106Z,97.98
2023-05-23T20:47:53.633Z,97.97
2023-05-23T20:50:39.308Z,98.69
2023-05-23T20:53:24.739Z,98.94
2023-05-23T20:56:12.829Z,99.30
2023-05-23T20:59:00.298Z,99.22
2023-05-23T21:01:45.873Z,99.38
2023-05-23T21:04:31.182Z,100.00
2023-05-23T21:07:16.754Z,100.00
2023-05-23T21:10:02.614Z,100.00
2023-05-23T21:12:50.192Z,100.00
2023-05-23T21:15:35.652Z,100.00
2023-05-23T21:18:22.585Z,100.00
2023-05-23T21:21:08.158Z,100.00
2023-05-23T21:23:53.366Z,100.00
2023-05-23T21:26:38.591Z,100.00
2023-05-23T21:29:24.003Z,100.00
2023-05-23T21:32:09.267Z,100.00
2023-05-23T21:34:54.693Z,100.00
2023-05-23T21:37:39.735Z,100.00
2023-05-23T21:40:26.835Z,100.00
2023-05-23T21:43:12.316Z,100.00
2023-05-23T21:45:57.570Z,100.00
2023-05-23T21:48:42.892Z,100.00
2023-05-23T21:51:28.145Z,100.00
2023-05-23T21:54:13.442Z,100.00
2023-05-23T21:56:59.100Z,100.00
2023-05-23T21:59:44.179Z,100.00
2023-05-23T22:02:29.682Z,100.00
2023-05-23T22:05:15.327Z,100.00
2023-05-23T22:08:00.634Z,100.00
2023-05-23T22:10:45.930Z,100.00
2023-05-23T22:13:31.274Z,100.00
2023-05-23T22:16:16.834Z,100.00
2023-05-23T22:19:02.238Z,100.00
2023-05-23T22:21:48.041Z,100.00
2023-05-23T22:24:36.942Z,100.00
2023-05-23T22:27:22.081Z,100.00
2023-05-23T22:30:08.637Z,100.00
2023-05-23T22:32:53.862Z,100.00
2023-05-23T22:35:40.754Z,100.00
2023-05-23T22:38:26.149Z,100.00
2023-05-23T22:41:11.687Z,100.00
2023-05-23T22:46:42.856Z,100.00
2023-05-23T22:49:30.239Z,100.00
2023-05-23T22:52:16.608Z,100.00
2023-05-23T22:55:02.092Z,100.00
2023-05-23T22:57:47.477Z,100.00
2023-05-23T23:00:32.882Z,100.00
2023-05-23T23:03:18.333Z,100.00
2023-05-23T23:06:06.288Z,100.00
2023-05-23T23:08:52.856Z,100.00
2023-05-23T23:11:38.308Z,100.00
2023-05-23T23:14:23.660Z,100.00
2023-05-23T23:17:10.060Z,100.00
2023-05-23T23:19:55.721Z,100.00
2023-05-23T23:22:41.148Z,100.00
2023-05-23T23:25:26.955Z,100.00
2023-05-23T23:28:12.423Z,100.00
2023-05-23T23:30:57.541Z,100.00
2023-05-23T23:33:42.864Z,100.00
2023-05-23T23:36:28.139Z,100.00
2023-05-23T23:39:13.268Z,100.00
2023-05-23T23:41:58.520Z,100.00
2023-05-23T23:44:43.842Z,100.00
2023-05-23T23:47:29.322Z,100.00
2023-05-23T23:50:14.438Z,100.00
2023-05-23T23:52:59.700Z,100.00
2023-05-23T23:55:45.359Z,100.00
2023-05-23T23:58:31.512Z,100.00
